Weather History for Roseau, MN

Change the Weather History Date:

Thursday, September 19, 2013

  Actual Average Record
Temperature  
Mean Temperature 61 °F -  
Max Temperature 69 °F 66 °F 91 °F (2004)
Min Temperature 53 °F 43 °F 28 °F (1956)
Degree Days  
Heating Degree Days 4    
Growing Degree Days 11 (Base 50)    
Moisture  
Dew Point 59 °F    
Average Humidity 83    
Maximum Humidity 88    
Minimum Humidity 73    
Precipitation  
Precipitation 0.00 in - - ()
Sea Level Pressure  
Sea Level Pressure 29.70 in    
Wind  
Wind Speed 6 mph (West)    
Max Wind Speed 16 mph    
Max Gust Speed 21 mph    
Visibility 6 miles    
Events Thunderstorm    
Averages and records for this station are not official NWS values.
T = Trace of Precipitation, MM = Missing Value Source: NWS Daily Summary

Daily Weather History Graph

Daily Weather History Graph

Search for Another Location

Airport:

Trip Planner

Search our weather history database for the weather conditions in past years. The results will help you decide how hot, cold, wet, or windy it might be!

Date:

Astronomy

Sep. 19, 2013 Rise Set
Actual Time 7:05 AM CDT 7:26 PM CDT
Civil Twilight 6:33 AM CDT 7:58 PM CDT
Nautical Twilight 5:56 AM CDT 8:35 PM CDT
Astronomical Twilight 5:17 AM CDT 9:14 PM CDT
Moon 7:18 PM CDT (9/19) 7:20 AM CDT (9/19)
Length of Visible Light 13h 24m
Length of Day
12h 20m
Full, 100% of the Moon is Illuminated
Sep 19
Full
Sep 26
Last Quarter
Oct 4
New
Oct 11
First Quarter
Oct 18
Full

Hourly Weather History & Observations

Time (CDT) Temp. Dew Point Humidity Pressure Visibility Wind Dir Wind Speed Gust Speed Precip Events Conditions
12:15 AM 68.0 °F 62.6 °F 83% 29.62 in 7.0 mi SSE 6.9 mph - N/A   Clear
12:34 AM 66.2 °F 62.6 °F 88% 29.63 in 5.0 mi South 5.8 mph - N/A   Haze
12:54 AM 66.2 °F 62.6 °F 88% 29.61 in 5.0 mi SW 3.5 mph - N/A Thunderstorm Haze
1:15 AM 66.2 °F 62.6 °F 88% 29.65 in 5.0 mi SSW 6.9 mph - N/A Thunderstorm Haze
1:34 AM 68.0 °F 62.6 °F 83% 29.64 in 5.0 mi SSW 5.8 mph - N/A   Haze
1:54 AM 68.0 °F 62.6 °F 83% 29.64 in 5.0 mi Calm Calm - N/A   Haze
2:14 AM 68.0 °F 62.6 °F 83% 29.63 in 4.0 mi Calm Calm - N/A   Haze
2:34 AM 66.2 °F 60.8 °F 83% 29.62 in 2.0 mi SSE 3.5 mph - N/A   Haze
2:54 AM 66.2 °F 60.8 °F 83% 29.64 in 2.5 mi South 8.1 mph - N/A   Haze
3:14 AM 68.0 °F 62.6 °F 83% 29.63 in 4.0 mi South 9.2 mph - N/A   Haze
3:34 AM 66.2 °F 60.8 °F 83% 29.62 in 5.0 mi SSW 5.8 mph - N/A   Haze
3:54 AM 66.2 °F 60.8 °F 83% 29.61 in 4.0 mi SW 5.8 mph - N/A   Haze
4:14 AM 66.2 °F 60.8 °F 83% 29.60 in 2.0 mi WSW 4.6 mph - N/A   Haze
4:34 AM 66.2 °F 60.8 °F 83% 29.60 in 1.5 mi WNW 3.5 mph - N/A   Haze
4:54 AM 64.4 °F 60.8 °F 88% 29.61 in 0.5 mi NW 6.9 mph - N/A   Haze
5:14 AM 66.2 °F 60.8 °F 83% 29.61 in 0.2 mi West 4.6 mph - N/A   Haze
5:34 AM 66.2 °F 60.8 °F 83% 29.62 in 0.2 mi Calm Calm - N/A   Haze
5:54 AM 64.4 °F 59.0 °F 83% 29.61 in 0.5 mi Calm Calm - N/A   Haze
6:14 AM 62.6 °F 57.2 °F 82% 29.62 in 0.2 mi Calm Calm - N/A   Haze
6:34 AM 62.6 °F 57.2 °F 82% 29.64 in 0.2 mi SE 4.6 mph - N/A   Haze
6:54 AM 64.4 °F 59.0 °F 83% 29.65 in 0.2 mi Calm Calm - N/A   Haze
7:14 AM 64.4 °F 59.0 °F 83% 29.65 in 0.2 mi Calm Calm - N/A   Haze
7:34 AM 64.4 °F 59.0 °F 83% 29.65 in 0.2 mi Calm Calm - N/A   Haze
7:54 AM 64.4 °F 60.8 °F 88% 29.65 in 0.2 mi Calm Calm - N/A   Haze
8:14 AM 64.4 °F 60.8 °F 88% 29.65 in 0.5 mi Calm Calm - N/A   Haze
8:34 AM 66.2 °F 60.8 °F 83% 29.66 in 0.2 mi South 4.6 mph - N/A   Haze
8:54 AM 66.2 °F 60.8 °F 83% 29.66 in 0.2 mi South 4.6 mph - N/A   Haze
9:14 AM 66.2 °F 60.8 °F 83% 29.67 in 0.2 mi South 5.8 mph - N/A   Haze
9:34 AM 66.2 °F 60.8 °F 83% 29.67 in 0.2 mi South 3.5 mph - N/A   Haze
9:54 AM 66.2 °F 60.8 °F 83% 29.67 in 0.2 mi Calm Calm - N/A   Haze
10:14 AM 66.2 °F 60.8 °F 83% 29.67 in 0.5 mi SSE 4.6 mph - N/A   Haze
10:34 AM 66.2 °F 60.8 °F 83% 29.68 in 1.5 mi South 3.5 mph - N/A   Haze
10:54 AM 66.2 °F 60.8 °F 83% 29.69 in 1.5 mi South 6.9 mph - N/A   Haze
11:14 AM 66.2 °F 60.8 °F 83% 29.70 in 1.5 mi SW 3.5 mph - N/A   Haze
11:34 AM 66.2 °F 62.6 °F 88% 29.69 in 2.0 mi SW 4.6 mph - N/A   Haze
11:54 AM 66.2 °F 62.6 °F 88% 29.69 in 2.0 mi SW 4.6 mph - N/A   Haze
12:14 PM 66.2 °F 62.6 °F 88% 29.68 in 3.0 mi West 3.5 mph - N/A   Haze
12:34 PM 68.0 °F 62.6 °F 83% 29.69 in 4.0 mi West 5.8 mph - N/A   Haze
12:54 PM 68.0 °F 62.6 °F 83% 29.70 in 7.0 mi West 4.6 mph - N/A   Scattered Clouds
1:14 PM 68.0 °F 62.6 °F 83% 29.71 in 10.0 mi West 8.1 mph - N/A   Scattered Clouds
1:34 PM 69.8 °F 62.6 °F 78% 29.70 in 10.0 mi WNW 11.5 mph 16.1 mph N/A   Scattered Clouds
1:54 PM 69.8 °F 62.6 °F 78% 29.70 in 10.0 mi West 9.2 mph - N/A   Scattered Clouds
2:14 PM 69.8 °F 62.6 °F 78% 29.70 in 10.0 mi West 10.4 mph - N/A   Scattered Clouds
2:34 PM 69.8 °F 62.6 °F 78% 29.70 in 10.0 mi West 9.2 mph - N/A   Scattered Clouds
2:54 PM 68.0 °F 62.6 °F 83% 29.71 in 10.0 mi WNW 10.4 mph 16.1 mph N/A   Scattered Clouds
3:14 PM 68.0 °F 62.6 °F 83% 29.70 in 10.0 mi WNW 11.5 mph - N/A   Scattered Clouds
3:34 PM 69.8 °F 60.8 °F 73% 29.71 in 10.0 mi WNW 10.4 mph 17.3 mph N/A   Clear
3:54 PM 68.0 °F 60.8 °F 78% 29.71 in 10.0 mi WNW 8.1 mph 17.3 mph N/A   Scattered Clouds
4:14 PM 66.2 °F 60.8 °F 83% 29.72 in 10.0 mi WNW 12.7 mph 17.3 mph N/A   Mostly Cloudy
4:35 PM 64.4 °F 59.0 °F 83% 29.73 in 10.0 mi WNW 12.7 mph 19.6 mph N/A   Overcast
4:54 PM 64.4 °F 57.2 °F 77% 29.73 in 10.0 mi WNW 10.4 mph 20.7 mph N/A   Overcast
5:14 PM 62.6 °F 57.2 °F 82% 29.73 in 5.0 mi WNW 12.7 mph 19.6 mph N/A   Haze
5:35 PM 62.6 °F 57.2 °F 82% 29.73 in 10.0 mi WNW 11.5 mph - N/A   Overcast
5:54 PM 62.6 °F 57.2 °F 82% 29.75 in 10.0 mi WNW 9.2 mph - N/A   Mostly Cloudy
6:14 PM 62.6 °F 55.4 °F 77% 29.74 in 10.0 mi NW 10.4 mph - N/A   Mostly Cloudy
6:34 PM 62.6 °F 57.2 °F 82% 29.75 in 10.0 mi NW 10.4 mph - N/A   Mostly Cloudy
6:54 PM 62.6 °F 55.4 °F 77% 29.76 in 10.0 mi NW 10.4 mph - N/A   Overcast
7:14 PM 62.6 °F 55.4 °F 77% 29.76 in 10.0 mi NW 13.8 mph - N/A   Mostly Cloudy
7:34 PM 60.8 °F 55.4 °F 82% 29.77 in 10.0 mi NW 11.5 mph - N/A   Mostly Cloudy
7:54 PM 60.8 °F 55.4 °F 82% 29.78 in 7.0 mi WNW 10.4 mph 18.4 mph N/A   Mostly Cloudy
8:14 PM 55.4 °F 51.8 °F 88% 29.79 in 7.0 mi NNW 11.5 mph - N/A   Overcast
8:34 PM 55.4 °F 51.8 °F 88% 29.80 in 10.0 mi NW 9.2 mph - N/A   Overcast
8:54 PM 55.4 °F 50.0 °F 82% 29.80 in 10.0 mi NNW 8.1 mph - N/A   Scattered Clouds
9:14 PM 55.4 °F 51.8 °F 88% 29.82 in 10.0 mi NW 5.8 mph - N/A   Mostly Cloudy
9:34 PM 55.4 °F 51.8 °F 88% 29.81 in 10.0 mi NW 11.5 mph - N/A   Overcast
9:54 PM 55.4 °F 51.8 °F 88% 29.81 in 10.0 mi NW 10.4 mph - N/A   Overcast
10:14 PM 55.4 °F 51.8 °F 88% 29.82 in 10.0 mi NW 9.2 mph - N/A   Overcast
10:34 PM 55.4 °F 51.8 °F 88% 29.81 in 10.0 mi NW 8.1 mph - N/A   Overcast
10:54 PM 55.4 °F 50.0 °F 82% 29.82 in 10.0 mi NW 11.5 mph 17.3 mph N/A   Overcast
11:14 PM 55.4 °F 48.2 °F 77% 29.81 in 10.0 mi NW 16.1 mph - N/A   Overcast
11:34 PM 53.6 °F 48.2 °F 82% 29.82 in 10.0 mi NW 15.0 mph - N/A   Overcast
11:54 PM 53.6 °F 48.2 °F 82% 29.82 in 10.0 mi NW 12.7 mph - N/A   Overcast